Time;durP1;ratioP1;P1;durP2;ratioP2;P2;SDS_P1;SDS_P2;PMS_P1;PMS_P2;Temp;Humidity;BMP_temperature;BMP_pressure;BME280_temperature;BME280_humidity;BME280_pressure;Samples;Min_cycle;Max_cycle;Signal;HPM_P1;HPM_P2
2022/03/14 00:00:47;;;;;;;83.07;36.50;;;;;;;;;;10311716;28;20050;-70
2022/03/14 00:05:50;;;;;;;83.40;37.28;;;;;;;;;;10311932;28;20049;-68
2022/03/14 00:10:53;;;;;;;83.93;38.15;;;;;;;;;;10312659;28;20093;-68
2022/03/14 00:15:56;;;;;;;79.32;36.65;;;;;;;;;;10310479;28;20066;-69
2022/03/14 00:21:00;;;;;;;75.95;35.60;;;;;;;;;;10311669;28;20397;-68
2022/03/14 00:26:04;;;;;;;71.75;35.88;;;;;;;;;;10309643;28;20093;-68
2022/03/14 00:31:07;;;;;;;77.78;35.20;;;;;;;;;;10311858;28;20061;-68
2022/03/14 00:36:11;;;;;;;67.35;32.97;;;;;;;;;;10309807;28;20047;-68
2022/03/14 00:41:15;;;;;;;63.58;33.65;;;;;;;;;;10310631;28;20058;-68
2022/03/14 00:46:17;;;;;;;66.75;34.45;;;;;;;;;;10310800;28;20082;-69
2022/03/14 00:51:21;;;;;;;67.50;33.80;;;;;;;;;;10310810;28;20357;-68
2022/03/14 00:56:24;;;;;;;65.82;32.63;;;;;;;;;;10310456;28;20054;-69
2022/03/14 01:01:26;;;;;;;67.32;33.35;;;;;;;;;;10310905;28;20342;-68
2022/03/14 01:06:30;;;;;;;72.18;35.58;;;;;;;;;;10309986;28;20049;-68
2022/03/14 01:11:33;;;;;;;70.65;34.25;;;;;;;;;;10310142;28;20334;-68
2022/03/14 01:16:37;;;;;;;110.57;42.33;;;;;;;;;;10309568;28;20047;-68
2022/03/14 01:21:41;;;;;;;138.60;45.47;;;;;;;;;;10309767;28;20456;-68
2022/03/14 01:26:44;;;;;;;99.65;40.00;;;;;;;;;;10308883;28;20058;-67
2022/03/14 01:31:47;;;;;;;102.45;39.72;;;;;;;;;;10309473;28;20050;-68
2022/03/14 01:36:50;;;;;;;109.80;42.08;;;;;;;;;;10309135;28;20055;-68
2022/03/14 01:41:55;;;;;;;77.82;32.55;;;;;;;;;;10308595;28;20075;-68
2022/03/14 01:47:00;;;;;;;70.20;33.63;;;;;;;;;;10314545;28;20090;-68
2022/03/14 01:52:07;;;;;;;66.73;31.07;;;;;;;;;;10317418;28;20254;-68
2022/03/14 01:57:09;;;;;;;62.40;30.88;;;;;;;;;;10317295;28;20089;-68
2022/03/14 02:02:12;;;;;;;61.33;31.25;;;;;;;;;;10315781;28;20046;-68
2022/03/14 02:07:15;;;;;;;62.17;30.92;;;;;;;;;;10316299;28;20046;-68
2022/03/14 02:12:18;;;;;;;62.97;33.30;;;;;;;;;;10315479;28;20051;-68
2022/03/14 02:17:20;;;;;;;65.53;32.25;;;;;;;;;;10316567;28;20269;-68
2022/03/14 02:22:24;;;;;;;64.55;32.58;;;;;;;;;;10315228;28;20070;-68
2022/03/14 02:27:26;;;;;;;70.65;32.97;;;;;;;;;;10314659;28;20045;-68
2022/03/14 02:32:28;;;;;;;68.68;34.50;;;;;;;;;;10315267;28;20070;-68
2022/03/14 02:37:32;;;;;;;68.97;33.30;;;;;;;;;;10314874;28;20050;-68
2022/03/14 02:42:36;;;;;;;73.53;34.83;;;;;;;;;;10314894;28;20059;-68
2022/03/14 02:47:39;;;;;;;68.38;32.92;;;;;;;;;;10314389;28;20342;-68
2022/03/14 02:52:42;;;;;;;70.00;33.08;;;;;;;;;;10314743;28;20073;-68
2022/03/14 02:57:45;;;;;;;70.18;30.95;;;;;;;;;;10311538;28;20058;-68
2022/03/14 03:02:47;;;;;;;58.55;31.38;;;;;;;;;;10313815;28;20051;-68
2022/03/14 03:07:54;;;;;;;64.07;30.65;;;;;;;;;;10313043;28;20043;-68
2022/03/14 03:12:57;;;;;;;64.80;29.25;;;;;;;;;;10325273;28;20054;-67
2022/03/14 03:17:59;;;;;;;61.92;32.08;;;;;;;;;;10314075;28;20038;-68
2022/03/14 03:23:04;;;;;;;64.35;32.08;;;;;;;;;;10313163;28;20063;-68
2022/03/14 03:28:06;;;;;;;63.28;30.95;;;;;;;;;;10312613;28;20042;-68
2022/03/14 03:33:09;;;;;;;61.22;30.75;;;;;;;;;;10309935;28;20047;-68
2022/03/14 03:38:13;;;;;;;62.20;29.52;;;;;;;;;;10311636;28;20059;-68
2022/03/14 03:43:15;;;;;;;57.88;26.67;;;;;;;;;;10324949;28;20356;-68
2022/03/14 03:48:18;;;;;;;69.95;33.35;;;;;;;;;;10311828;28;20042;-68
2022/03/14 03:53:22;;;;;;;67.97;31.27;;;;;;;;;;10311063;28;20050;-68
2022/03/14 03:58:25;;;;;;;63.80;29.85;;;;;;;;;;10308857;28;20046;-68
2022/03/14 04:03:27;;;;;;;63.63;30.60;;;;;;;;;;10310943;28;20046;-68
2022/03/14 04:08:32;;;;;;;55.03;26.63;;;;;;;;;;10311251;28;20090;-68
2022/03/14 04:13:35;;;;;;;57.67;29.55;;;;;;;;;;10311702;28;20090;-68
2022/03/14 04:18:37;;;;;;;55.60;28.40;;;;;;;;;;10311559;28;20039;-68
2022/03/14 04:23:41;;;;;;;64.95;32.38;;;;;;;;;;10311325;28;20058;-68
2022/03/14 04:28:44;;;;;;;52.13;26.48;;;;;;;;;;10309867;28;20069;-68
2022/03/14 04:33:46;;;;;;;63.10;28.48;;;;;;;;;;10310452;28;20067;-68
2022/03/14 04:38:50;;;;;;;55.33;28.73;;;;;;;;;;10310739;28;20059;-68
2022/03/14 04:43:52;;;;;;;59.40;29.95;;;;;;;;;;10310458;28;20047;-68
2022/03/14 04:48:55;;;;;;;52.40;27.33;;;;;;;;;;10311009;28;20050;-68
2022/03/14 04:53:59;;;;;;;55.83;27.55;;;;;;;;;;10309943;28;20329;-68
2022/03/14 04:59:01;;;;;;;48.90;26.35;;;;;;;;;;10310441;28;20050;-68
2022/03/14 05:04:04;;;;;;;55.58;27.08;;;;;;;;;;10309919;28;20058;-68
2022/03/14 05:09:08;;;;;;;52.00;26.42;;;;;;;;;;10310394;28;20051;-68
2022/03/14 05:14:10;;;;;;;54.80;28.38;;;;;;;;;;10307686;28;20121;-68
2022/03/14 05:19:13;;;;;;;49.72;25.17;;;;;;;;;;10311032;28;20042;-68
2022/03/14 05:24:17;;;;;;;51.63;26.92;;;;;;;;;;10316373;28;20047;-68
2022/03/14 05:29:20;;;;;;;44.60;23.70;;;;;;;;;;10317950;28;20086;-68
2022/03/14 05:34:22;;;;;;;57.75;28.30;;;;;;;;;;10317229;28;20089;-68
2022/03/14 05:39:26;;;;;;;51.13;27.25;;;;;;;;;;10317018;28;20063;-68
2022/03/14 05:44:28;;;;;;;49.35;26.58;;;;;;;;;;10316304;28;20054;-68
2022/03/14 05:49:31;;;;;;;37.40;23.05;;;;;;;;;;10317557;28;20099;-68
2022/03/14 05:54:36;;;;;;;39.20;21.65;;;;;;;;;;10316971;28;20059;-68
2022/03/14 05:59:38;;;;;;;;;;;;;;;;;;10328036;28;20383;-69
2022/03/14 06:04:40;;;;;;;36.60;21.95;;;;;;;;;;10316941;28;19929;-68
2022/03/14 06:09:44;;;;;;;34.15;20.55;;;;;;;;;;10315988;28;20160;-68
2022/03/14 06:14:46;;;;;;;35.00;21.83;;;;;;;;;;10312271;28;20073;-68
2022/03/14 06:19:49;;;;;;;36.83;22.10;;;;;;;;;;10314900;28;20286;-69
2022/03/14 06:24:53;;;;;;;39.50;22.57;;;;;;;;;;10314910;28;20330;-68
2022/03/14 06:29:56;;;;;;;33.93;22.03;;;;;;;;;;10315522;28;20051;-68
2022/03/14 06:34:58;;;;;;;54.97;28.95;;;;;;;;;;10314187;28;20263;-69
2022/03/14 06:40:03;;;;;;;34.47;21.48;;;;;;;;;;10313959;28;20065;-69
2022/03/14 06:45:06;;;;;;;35.58;22.80;;;;;;;;;;10313621;28;20051;-69
2022/03/14 06:50:10;;;;;;;32.83;21.35;;;;;;;;;;10314438;28;20070;-70
2022/03/14 06:55:14;;;;;;;29.70;20.65;;;;;;;;;;10312551;28;20085;-69
2022/03/14 07:00:17;;;;;;;38.38;21.42;;;;;;;;;;10313105;28;20042;-69
2022/03/14 07:05:21;;;;;;;32.42;20.50;;;;;;;;;;10312515;28;20043;-68
2022/03/14 07:10:24;;;;;;;31.05;21.25;;;;;;;;;;10312710;28;20050;-68
2022/03/14 07:15:29;;;;;;;26.35;17.92;;;;;;;;;;10312090;28;20378;-69
2022/03/14 07:20:32;;;;;;;25.40;17.42;;;;;;;;;;10310366;28;20349;-69
2022/03/14 07:25:38;;;;;;;24.77;18.30;;;;;;;;;;10310983;28;20051;-68
2022/03/14 07:30:41;;;;;;;34.05;18.63;;;;;;;;;;10312369;28;20043;-69
2022/03/14 07:35:43;;;;;;;28.67;19.25;;;;;;;;;;10312005;28;20082;-70
2022/03/14 07:40:47;;;;;;;22.92;17.50;;;;;;;;;;10310564;28;20066;-68
2022/03/14 07:45:50;;;;;;;23.70;17.95;;;;;;;;;;10310122;28;20074;-68
2022/03/14 07:50:53;;;;;;;23.05;17.42;;;;;;;;;;10311267;28;20273;-69
2022/03/14 08:01:07;;;;;;;23.55;17.55;;;;;;;;;;10965820;23;20069;-68
2022/03/14 08:06:22;;;;;;;24.92;17.95;;;;;;;;;;10352140;28;20248;-68
2022/03/14 08:11:28;;;;;;;25.63;18.48;;;;;;;;;;10365795;28;20333;-69
2022/03/14 08:16:31;;;;;;;19.70;16.60;;;;;;;;;;10352736;28;20058;-71
2022/03/14 08:21:34;;;;;;;22.77;17.08;;;;;;;;;;10350854;28;20058;-70
2022/03/14 08:26:38;;;;;;;21.95;16.80;;;;;;;;;;10351360;28;20054;-70
2022/03/14 08:31:42;;;;;;;28.20;17.40;;;;;;;;;;10351538;28;20288;-68
2022/03/14 08:36:45;;;;;;;22.95;16.20;;;;;;;;;;10349762;28;20051;-68
2022/03/14 08:41:48;;;;;;;21.38;15.95;;;;;;;;;;10351536;28;20117;-69
2022/03/14 08:46:52;;;;;;;24.45;17.33;;;;;;;;;;10350893;28;20225;-70
2022/03/14 08:51:55;;;;;;;22.50;17.23;;;;;;;;;;10351053;28;20054;-70
2022/03/14 08:56:57;;;;;;;25.17;17.13;;;;;;;;;;10359814;28;20050;-70
2022/03/14 09:02:01;;;;;;;26.25;17.38;;;;;;;;;;10363182;28;20387;-70
2022/03/14 09:07:04;;;;;;;22.00;16.40;;;;;;;;;;10358151;28;20050;-69
2022/03/14 09:12:07;;;;;;;21.25;17.60;;;;;;;;;;10358235;28;20058;-70
2022/03/14 09:17:11;;;;;;;23.50;18.73;;;;;;;;;;10357671;28;20054;-69
2022/03/14 09:22:13;;;;;;;23.67;18.60;;;;;;;;;;10395678;28;20061;-69
2022/03/14 09:27:15;;;;;;;27.48;19.15;;;;;;;;;;10365550;28;20062;-68
2022/03/14 09:32:19;;;;;;;;;;;;;;;;;;10357788;28;20061;-70
2022/03/14 09:37:21;;;;;;;37.50;22.85;;;;;;;;;;10358541;28;19953;-67
2022/03/14 09:42:25;;;;;;;35.80;24.48;;;;;;;;;;10367138;28;20363;-68
2022/03/14 09:47:30;;;;;;;38.17;24.77;;;;;;;;;;10355354;28;20065;-69
2022/03/14 09:52:36;;;;;;;44.83;27.55;;;;;;;;;;10357201;28;20255;-68
2022/03/14 09:57:39;;;;;;;51.42;28.27;;;;;;;;;;10366709;28;20061;-67
2022/03/14 10:02:44;;;;;;;41.00;25.63;;;;;;;;;;10288790;28;20043;-68
2022/03/14 10:07:46;;;;;;;45.10;27.15;;;;;;;;;;10318886;28;20046;-73
2022/03/14 10:12:53;;;;;;;47.53;28.20;;;;;;;;;;10315022;28;20050;-68
2022/03/14 10:17:57;;;;;;;45.67;26.13;;;;;;;;;;10326335;28;20219;-70
2022/03/14 10:23:00;;;;;;;40.27;25.67;;;;;;;;;;10313936;28;20061;-70
2022/03/14 10:28:04;;;;;;;46.28;27.60;;;;;;;;;;10315231;28;20042;-68
2022/03/14 10:33:14;;;;;;;42.63;25.63;;;;;;;;;;10277509;28;20046;-67
2022/03/14 10:38:17;;;;;;;43.80;26.45;;;;;;;;;;10314508;28;20045;-69
2022/03/14 10:43:25;;;;;;;55.78;28.08;;;;;;;;;;10312802;28;20062;-70
2022/03/14 10:48:39;;;;;;;43.47;24.83;;;;;;;;;;10313276;28;20278;-68
2022/03/14 10:53:43;;;;;;;40.08;25.70;;;;;;;;;;10327372;28;20210;-69
2022/03/14 10:58:46;;;;;;;43.03;24.25;;;;;;;;;;10322594;28;20118;-69
2022/03/14 11:03:50;;;;;;;39.50;25.17;;;;;;;;;;10353516;28;20063;-68
2022/03/14 11:08:53;;;;;;;36.33;23.10;;;;;;;;;;10353442;28;20038;-68
2022/03/14 11:13:56;;;;;;;46.35;25.73;;;;;;;;;;10352475;28;20054;-70
2022/03/14 11:19:00;;;;;;;39.72;21.95;;;;;;;;;;10352243;28;20089;-68
2022/03/14 11:24:04;;;;;;;45.95;24.98;;;;;;;;;;10326401;28;20085;-69
2022/03/14 11:29:08;;;;;;;44.10;22.92;;;;;;;;;;10351729;28;20047;-69
2022/03/14 11:34:12;;;;;;;36.13;21.63;;;;;;;;;;10345044;28;20349;-67
2022/03/14 11:39:15;;;;;;;39.53;23.17;;;;;;;;;;10337201;28;20156;-68
2022/03/14 11:44:27;;;;;;;42.33;22.05;;;;;;;;;;10531235;27;20459;-67
2022/03/14 11:49:31;;;;;;;38.75;22.90;;;;;;;;;;10537407;28;20063;-68
2022/03/14 11:54:37;;;;;;;37.53;20.77;;;;;;;;;;10509009;28;20040;-70
2022/03/14 11:59:41;;;;;;;33.90;21.00;;;;;;;;;;10515613;28;20350;-70
2022/03/14 12:04:43;;;;;;;37.55;21.10;;;;;;;;;;10508153;28;20049;-68
2022/03/14 12:09:48;;;;;;;43.72;21.48;;;;;;;;;;10523628;28;20052;-70
2022/03/14 12:14:56;;;;;;;34.42;21.20;;;;;;;;;;10546575;28;20033;-67
2022/03/14 12:20:01;;;;;;;38.42;20.45;;;;;;;;;;10508558;28;20059;-68
2022/03/14 12:25:05;;;;;;;31.37;19.33;;;;;;;;;;10485976;28;20060;-69
2022/03/14 12:30:31;;;;;;;30.95;20.50;;;;;;;;;;10468638;28;20057;-69
2022/03/14 12:35:37;;;;;;;33.03;20.30;;;;;;;;;;10485566;28;20065;-68
2022/03/14 12:40:42;;;;;;;34.17;19.42;;;;;;;;;;10506844;28;20064;-67
2022/03/14 12:45:47;;;;;;;36.53;19.98;;;;;;;;;;10507588;28;20052;-70
2022/03/14 12:50:57;;;;;;;33.53;18.53;;;;;;;;;;10483607;28;20037;-68
2022/03/14 12:56:01;;;;;;;40.05;21.70;;;;;;;;;;10487127;28;20239;-67
2022/03/14 13:01:06;;;;;;;31.27;20.07;;;;;;;;;;10445930;28;20038;-67
2022/03/14 13:06:09;;;;;;;31.63;20.53;;;;;;;;;;10460803;28;20052;-67
2022/03/14 13:11:12;;;;;;;31.33;19.92;;;;;;;;;;10480320;28;20535;-68
2022/03/14 13:16:16;;;;;;;32.42;19.63;;;;;;;;;;10478587;28;20049;-68
2022/03/14 13:21:23;;;;;;;23.15;16.13;;;;;;;;;;10479019;28;20041;-67
2022/03/14 13:26:26;;;;;;;31.63;15.93;;;;;;;;;;10477154;28;20053;-67
2022/03/14 13:31:34;;;;;;;32.90;18.50;;;;;;;;;;10477300;28;20155;-67
2022/03/14 13:36:41;;;;;;;29.27;18.58;;;;;;;;;;10477535;28;20052;-69
2022/03/14 13:41:44;;;;;;;29.17;18.02;;;;;;;;;;10477560;28;20136;-67
2022/03/14 13:46:47;;;;;;;28.73;16.95;;;;;;;;;;10477146;28;20052;-69
2022/03/14 13:51:53;;;;;;;39.20;19.63;;;;;;;;;;10478009;28;20358;-68
2022/03/14 13:57:00;;;;;;;31.15;20.23;;;;;;;;;;10482739;28;20028;-67
2022/03/14 14:02:06;;;;;;;29.98;18.85;;;;;;;;;;10476263;28;20095;-69
2022/03/14 14:07:16;;;;;;;29.52;17.70;;;;;;;;;;10475024;28;20327;-71
2022/03/14 14:12:23;;;;;;;28.65;18.25;;;;;;;;;;10470711;28;20052;-68
2022/03/14 14:17:33;;;;;;;32.30;19.92;;;;;;;;;;10473824;28;20124;-65
2022/03/14 14:22:38;;;;;;;37.63;21.58;;;;;;;;;;10488613;28;20048;-66
2022/03/14 14:27:49;;;;;;;;;;;;;;;;;;10474122;28;20045;-67
2022/03/14 14:32:51;;;;;;;32.88;20.67;;;;;;;;;;10474323;28;19916;-69
2022/03/14 14:37:55;;;;;;;33.78;20.40;;;;;;;;;;10472880;28;20045;-67
2022/03/14 14:42:58;;;;;;;34.03;21.42;;;;;;;;;;10475134;28;20453;-67
2022/03/14 14:48:01;;;;;;;44.38;20.73;;;;;;;;;;10477467;28;20052;-68
2022/03/14 14:53:06;;;;;;;37.03;20.85;;;;;;;;;;10473830;28;20048;-67
2022/03/14 14:58:09;;;;;;;35.38;20.85;;;;;;;;;;10471573;28;20102;-67
2022/03/14 15:03:11;;;;;;;36.00;20.67;;;;;;;;;;10471418;28;20048;-66
2022/03/14 15:08:16;;;;;;;32.80;20.40;;;;;;;;;;10473219;28;20370;-68
2022/03/14 15:13:19;;;;;;;42.10;22.25;;;;;;;;;;10473487;28;20048;-69
2022/03/14 15:18:21;;;;;;;38.28;22.98;;;;;;;;;;10474680;28;20251;-69
2022/03/14 15:23:25;;;;;;;38.60;23.35;;;;;;;;;;10494369;28;20054;-67
2022/03/14 15:28:28;;;;;;;35.45;21.50;;;;;;;;;;10483294;28;20044;-68
2022/03/14 15:33:31;;;;;;;35.90;21.13;;;;;;;;;;10470714;28;20049;-68
2022/03/14 15:38:36;;;;;;;32.03;20.58;;;;;;;;;;10458893;28;20111;-69
2022/03/14 15:43:39;;;;;;;37.47;22.42;;;;;;;;;;10519077;28;20048;-68
2022/03/14 15:48:42;;;;;;;42.50;24.80;;;;;;;;;;10474506;28;20258;-68
2022/03/14 15:53:48;;;;;;;54.70;26.90;;;;;;;;;;10507786;28;20049;-67
2022/03/14 15:58:51;;;;;;;55.90;28.08;;;;;;;;;;10441300;28;20080;-68
2022/03/14 16:03:53;;;;;;;42.28;21.65;;;;;;;;;;10493052;28;20063;-69
2022/03/14 16:08:58;;;;;;;49.05;26.65;;;;;;;;;;10473899;28;20236;-69
2022/03/14 16:14:01;;;;;;;42.47;24.25;;;;;;;;;;10474466;28;20068;-69
2022/03/14 16:19:04;;;;;;;52.90;27.77;;;;;;;;;;10472900;28;20090;-67
2022/03/14 16:24:09;;;;;;;51.75;26.13;;;;;;;;;;10472739;28;20053;-67
2022/03/14 16:29:12;;;;;;;52.13;28.02;;;;;;;;;;10490357;28;20159;-67
2022/03/14 16:34:14;;;;;;;54.47;29.08;;;;;;;;;;10508930;28;20056;-67
2022/03/14 16:39:22;;;;;;;51.80;26.33;;;;;;;;;;10439749;28;20033;-67
2022/03/14 16:44:25;;;;;;;53.55;25.92;;;;;;;;;;10509490;28;20049;-69
2022/03/14 16:49:28;;;;;;;57.45;27.20;;;;;;;;;;10447814;28;20060;-67
2022/03/14 16:54:32;;;;;;;52.50;25.45;;;;;;;;;;10480479;28;20217;-67
2022/03/14 16:59:35;;;;;;;65.07;25.88;;;;;;;;;;10447539;28;20045;-69
2022/03/14 17:04:37;;;;;;;51.53;24.35;;;;;;;;;;10480738;28;20235;-68
2022/03/14 17:09:43;;;;;;;61.78;29.35;;;;;;;;;;10440167;28;20045;-68
2022/03/14 17:14:45;;;;;;;53.72;26.00;;;;;;;;;;10509024;28;20120;-67
2022/03/14 17:19:48;;;;;;;55.63;25.38;;;;;;;;;;10491471;28;20037;-68
2022/03/14 17:24:52;;;;;;;57.90;30.90;;;;;;;;;;10478738;28;20355;-67
2022/03/14 17:29:55;;;;;;;59.35;29.23;;;;;;;;;;10495508;28;20299;-67
2022/03/14 17:34:57;;;;;;;69.50;31.10;;;;;;;;;;10503149;28;20275;-67
2022/03/14 17:40:01;;;;;;;101.63;45.20;;;;;;;;;;10481417;28;20362;-67
2022/03/14 17:45:05;;;;;;;107.28;47.60;;;;;;;;;;10458521;28;20044;-66
2022/03/14 17:50:10;;;;;;;78.25;37.55;;;;;;;;;;10475738;28;20302;-68
2022/03/14 17:55:14;;;;;;;77.10;35.23;;;;;;;;;;10477090;28;20045;-67
2022/03/14 18:00:17;;;;;;;74.95;35.72;;;;;;;;;;10475935;28;20049;-68
2022/03/14 18:05:19;;;;;;;79.03;37.00;;;;;;;;;;10459310;28;20050;-69
2022/03/14 18:10:26;;;;;;;69.43;33.65;;;;;;;;;;10493377;28;20048;-67
2022/03/14 18:15:29;;;;;;;103.88;50.15;;;;;;;;;;10529156;28;20044;-67
2022/03/14 18:20:32;;;;;;;89.05;43.35;;;;;;;;;;10488069;28;20351;-67
2022/03/14 18:25:37;;;;;;;76.88;41.95;;;;;;;;;;10462369;28;20053;-67
2022/03/14 18:30:39;;;;;;;85.35;47.70;;;;;;;;;;10497951;28;20251;-69
2022/03/14 18:35:42;;;;;;;87.32;52.67;;;;;;;;;;10476826;28;20060;-69
2022/03/14 18:40:46;;;;;;;80.70;48.08;;;;;;;;;;10476033;28;20060;-68
2022/03/14 18:45:49;;;;;;;70.65;38.72;;;;;;;;;;10475407;28;20092;-66
2022/03/14 18:50:51;;;;;;;82.45;44.17;;;;;;;;;;10477021;28;20343;-67
2022/03/14 18:55:55;;;;;;;76.95;37.50;;;;;;;;;;10475532;28;20052;-68
2022/03/14 19:00:57;;;;;;;77.15;37.03;;;;;;;;;;10503071;28;20047;-69
2022/03/14 19:06:02;;;;;;;71.55;34.78;;;;;;;;;;10483113;28;20284;-67
2022/03/14 19:11:06;;;;;;;70.17;35.00;;;;;;;;;;10506583;28;20067;-68
2022/03/14 19:16:11;;;;;;;69.90;33.92;;;;;;;;;;10501231;28;20045;-69
2022/03/14 19:21:17;;;;;;;69.75;32.65;;;;;;;;;;10482642;28;20324;-68
2022/03/14 19:26:21;;;;;;;64.32;32.28;;;;;;;;;;10475470;28;20049;-68
2022/03/14 19:31:24;;;;;;;68.75;32.40;;;;;;;;;;10475223;28;20068;-68
2022/03/14 19:36:30;;;;;;;67.57;32.50;;;;;;;;;;10475451;28;20041;-68
2022/03/14 19:41:35;;;;;;;67.35;32.60;;;;;;;;;;10482784;28;20057;-67
2022/03/14 19:46:37;;;;;;;69.50;32.88;;;;;;;;;;10473568;28;20051;-69
2022/03/14 19:51:40;;;;;;;69.82;32.47;;;;;;;;;;10475889;28;20071;-68
2022/03/14 19:56:46;;;;;;;66.72;33.33;;;;;;;;;;10496090;28;20212;-69
2022/03/14 20:01:49;;;;;;;65.22;32.15;;;;;;;;;;10464943;28;20048;-67
2022/03/14 20:06:52;;;;;;;67.38;32.42;;;;;;;;;;10475435;28;20091;-66
2022/03/14 20:11:58;;;;;;;62.05;31.88;;;;;;;;;;10482983;28;20056;-66
2022/03/14 20:17:00;;;;;;;62.10;32.30;;;;;;;;;;10505014;28;20052;-68
2022/03/14 20:22:04;;;;;;;66.63;33.75;;;;;;;;;;10503189;28;20053;-68
2022/03/14 20:27:09;;;;;;;65.13;33.53;;;;;;;;;;10482103;28;20052;-68
2022/03/14 20:32:11;;;;;;;62.20;34.60;;;;;;;;;;10483026;28;20045;-69
2022/03/14 20:37:14;;;;;;;72.15;36.30;;;;;;;;;;10482337;28;20353;-68
2022/03/14 20:42:19;;;;;;;72.18;36.60;;;;;;;;;;10481758;28;20084;-67
2022/03/14 20:47:23;;;;;;;74.40;37.33;;;;;;;;;;10482484;28;20300;-67
2022/03/14 20:52:25;;;;;;;84.47;38.90;;;;;;;;;;10481219;28;20061;-68
2022/03/14 20:57:29;;;;;;;73.43;36.80;;;;;;;;;;10481394;28;20095;-67
2022/03/14 21:07:51;;;;;;;75.20;36.72;;;;;;;;;;10500526;28;20061;-67
2022/03/14 21:12:56;;;;;;;78.80;37.88;;;;;;;;;;10480613;28;20219;-67
2022/03/14 21:18:00;;;;;;;86.32;39.63;;;;;;;;;;10506397;28;20078;-68
2022/03/14 21:23:03;;;;;;;91.70;42.47;;;;;;;;;;10503518;28;20348;-68
2022/03/14 21:28:07;;;;;;;102.32;45.58;;;;;;;;;;10479591;28;20415;-67
2022/03/14 21:33:11;;;;;;;97.50;43.25;;;;;;;;;;10473338;28;20048;-67
2022/03/14 21:38:14;;;;;;;86.78;41.47;;;;;;;;;;10491232;28;20040;-68
2022/03/14 21:43:18;;;;;;;84.70;42.53;;;;;;;;;;10521308;28;20061;-67
2022/03/14 21:48:21;;;;;;;94.55;41.25;;;;;;;;;;10510342;28;20040;-68
2022/03/14 21:53:23;;;;;;;83.55;42.35;;;;;;;;;;10517154;28;20053;-67
2022/03/14 21:58:28;;;;;;;95.00;43.20;;;;;;;;;;10478457;28;20063;-68
2022/03/14 22:03:34;;;;;;;89.53;44.33;;;;;;;;;;10477851;28;20047;-67
2022/03/14 22:08:36;;;;;;;102.38;51.00;;;;;;;;;;10491205;28;20060;-68
2022/03/14 22:13:40;;;;;;;97.55;50.45;;;;;;;;;;10476477;28;20045;-66
2022/03/14 22:18:42;;;;;;;91.97;45.88;;;;;;;;;;10505861;28;20048;-67
2022/03/14 22:23:46;;;;;;;86.10;43.80;;;;;;;;;;10478150;28;20336;-67
2022/03/14 22:28:49;;;;;;;85.55;42.45;;;;;;;;;;10476373;28;20040;-68
2022/03/14 22:33:54;;;;;;;92.28;43.70;;;;;;;;;;10476523;28;20057;-68
2022/03/14 22:38:57;;;;;;;87.55;43.45;;;;;;;;;;10475888;28;20070;-69
2022/03/14 22:44:01;;;;;;;82.10;41.78;;;;;;;;;;10475927;28;20139;-68
2022/03/14 22:49:04;;;;;;;83.13;41.70;;;;;;;;;;10476250;28;20053;-66
2022/03/14 22:54:06;;;;;;;86.95;42.25;;;;;;;;;;10476824;28;20274;-67
2022/03/14 22:59:10;;;;;;;86.35;42.85;;;;;;;;;;10449359;28;20041;-67
2022/03/14 23:09:32;;;;;;;92.85;45.10;;;;;;;;;;10474955;28;20052;-67
2022/03/14 23:14:37;;;;;;;96.72;46.03;;;;;;;;;;10475288;28;20053;-68
2022/03/14 23:19:39;;;;;;;96.22;44.95;;;;;;;;;;10474910;28;20087;-67
2022/03/14 23:24:42;;;;;;;104.13;44.65;;;;;;;;;;10474052;28;20056;-69
2022/03/14 23:29:45;;;;;;;94.22;42.85;;;;;;;;;;10474167;28;20057;-66
2022/03/14 23:34:48;;;;;;;82.90;39.92;;;;;;;;;;10443217;28;20054;-68
2022/03/14 23:39:50;;;;;;;91.72;41.83;;;;;;;;;;10453676;28;20103;-68
2022/03/14 23:44:55;;;;;;;87.68;42.05;;;;;;;;;;10457947;28;20061;-68
2022/03/14 23:49:57;;;;;;;86.35;40.83;;;;;;;;;;10432730;28;20049;-66
2022/03/14 23:54:59;;;;;;;95.30;43.55;;;;;;;;;;10433048;28;20053;-69
